• Join FlightAware (Why Join?)
  • Login
  • US Flag 
09:07PM EDT


 

Airport Tracker/Info


-or-


 

Live Flight TrackerFlight Track Log ✈ DAL1084 ✈ 03-Jul-2013 ✈ PANC - KMSP

Flight Track Log - Related Links

Times and Time Zones

All times are in EDT time to prevent confusion due to time zone crossing. See the DAL1084 flight status page for this flight to view local times or setup timezone preferences in your user account.

Time Position Orientation Groundspeed Altitude Reporting Facility
EDT Latitude Longitude Course Direction KTS MPH feet Rate Location/Type
09:59AM 61.0667 -150.1000 101° East 250 288 4,600  Level Anchorage Center
10:00AM 61.1717 -149.1880 109° East  Level Estimated
10:00AM 61.0167 -150.0167 141° Southeast 270 311 7,200  Level Anchorage Center
10:01AM 61.1699 -148.9180 101° East  Level Estimated
10:01AM 60.9833 -149.8667 115° Southeast 270 311 9,800  Level Anchorage Center
10:02AM 61.1675 -148.6480 99° East  Level Estimated
10:02AM 60.9500 -149.7000 112° Southeast 310 357 11,100  Level Anchorage Center
10:03AM 61.0620 -148.4900 144° Southeast  Level FlightAware Approximate
10:03AM 60.9167 -149.5167 110° East 370 426 12,400  Level Anchorage Center
10:04AM 61.0590 -148.2209 101° East  Level Estimated
10:04AM 60.8833 -149.3167 109° East 360 414 14,600  Level Anchorage Center
10:05AM 60.8333 -149.1167 117° Southeast 390 449 16,500 1,860 Climbing Anchorage Center
10:06AM 60.8000 -148.9167 109° East 410 472 18,400 1,920 Climbing Anchorage Center
10:07AM 60.7500 -148.7000 115° Southeast 420 483 20,400 1,740 Climbing Anchorage Center
10:08AM 60.7000 -148.4667 114° Southeast 420 483 22,000 1,560 Climbing Anchorage Center
10:09AM 60.6500 -148.2333 114° Southeast 430 495 23,600 1,500 Climbing Anchorage Center
10:10AM 60.6000 -148.0000 113° Southeast 440 506 25,000 1,320 Climbing Anchorage Center
10:11AM 60.6000 -147.7167 90° East 460 529 26,300 1,200 Climbing Anchorage Center
10:12AM 60.5833 -147.4667 98° East 460 529 27,500 1,080 Climbing Anchorage Center
10:13AM 60.5833 -147.2000 90° East 470 541 28,500 1,200 Climbing Anchorage Center
10:14AM 60.5667 -146.9167 97° East 480 552 29,900 1,380 Climbing Anchorage Center
10:15AM 60.5667 -146.6500 90° East 480 552 31,300 1,200 Climbing Anchorage Center
10:16AM 60.5500 -146.3833 97° East 470 541 32,400 1,080 Climbing Anchorage Center
10:17AM 60.5500 -146.1167 90° East 470 541 33,500 1,080 Climbing Anchorage Center
10:18AM 60.5333 -145.8500 97° East 470 541 34,600 720 Climbing Anchorage Center
10:19AM 60.5333 -145.5833 90° East 460 529 35,000 180 Climbing Anchorage Center
10:20AM 60.5167 -145.3167 97° East 470 541 35,000  Level Anchorage Center
10:21AM 60.5000 -145.0500 97° East 470 541 35,000  Level Anchorage Center
10:22AM 60.5000 -144.7833 90° East 470 541 35,000  Level Anchorage Center
10:23AM 60.4833 -144.5167 97° East 470 541 35,000  Level Anchorage Center
10:24AM 60.4667 -144.2333 97° East 480 552 35,000  Level Anchorage Center
10:25AM 60.4500 -143.9667 97° East 480 552 35,000  Level Anchorage Center
10:26AM 60.4333 -143.7000 97° East 470 541 35,000  Level Anchorage Center
10:27AM 60.4333 -143.4333 90° East 470 541 35,000  Level Anchorage Center
10:28AM 60.4167 -143.1667 97° East 470 541 35,000  Level Anchorage Center
10:29AM 60.4000 -142.9000 97° East 480 552 35,000  Level Anchorage Center
10:30AM 60.3833 -142.6833 99° East 470 541 35,000  Level Anchorage Center
10:31AM 60.3667 -142.4167 97° East 470 541 35,000  Level Anchorage Center
10:32AM 60.3500 -142.1500 97° East 460 529 35,000  Level Anchorage Center
10:33AM 60.3333 -141.8833 97° East 470 541 35,000  Level Anchorage Center
10:34AM 60.3167 -141.6333 98° East 470 541 35,000  Level Anchorage Center
10:35AM 60.3000 -141.3667 97° East 470 541 35,000  Level Anchorage Center
10:36AM 60.2667 -141.1000 104° East 470 541 35,000  Level Anchorage Center
10:37AM 60.2500 -140.8333 97° East 480 552 35,000  Level Anchorage Center
10:38AM 60.2333 -140.5667 97° East 470 541 35,000  Level Anchorage Center
10:39AM 60.2167 -140.3000 97° East 470 541 35,000  Level Anchorage Center
10:40AM 60.1833 -140.0500 105° East 480 552 35,000  Level Anchorage Center
10:41AM 60.1667 -139.7833 97° East 470 541 35,000  Level Anchorage Center
10:42AM 60.1500 -139.5167 97° East 480 552 35,000  Level Anchorage Center
10:43AM 60.1167 -139.2500 104° East 470 541 35,000  Level Anchorage Center
10:44AM 60.1000 -138.9833 97° East 470 541 35,000  Level Anchorage Center
10:45AM 60.0667 -138.7333 105° East 470 541 35,000  Level Anchorage Center
10:47AM 60.0247 -138.3544 102° East  Level FlightAware Approximate
10:54AM 59.8120 -136.5796 103° East  Level FlightAware Approximate
10:55AM 59.7796 -136.3280 104° East  Level FlightAware Approximate
10:56AM 59.7468 -136.0768 104° East  Level FlightAware Approximate
10:57AM 59.7136 -135.8261 105° East  Level FlightAware Approximate
10:58AM 59.6798 -135.5760 105° East  Level FlightAware Approximate
10:59AM 59.6456 -135.3263 105° East  Level FlightAware Approximate
11:00AM 59.6109 -135.0772 105° East  Level FlightAware Approximate
11:01AM 59.5757 -134.8286 106° East  Level FlightAware Approximate
11:02AM 59.5400 -134.5805 106° East  Level FlightAware Approximate
11:03AM 59.5039 -134.3329 106° East  Level FlightAware Approximate
11:04AM 59.4673 -134.0858 106° East  Level FlightAware Approximate
11:05AM 59.4303 -133.8394 106° East  Level FlightAware Approximate
11:06AM 59.3928 -133.5934 107° East  Level FlightAware Approximate
11:07AM 59.3548 -133.3480 107° East  Level FlightAware Approximate
11:08AM 59.3163 -133.1031 107° East  Level FlightAware Approximate
11:09AM 59.2769 -132.8591 108° East  Level FlightAware Approximate
11:10AM 59.2365 -132.6160 108° East  Level FlightAware Approximate
11:11AM 59.1957 -132.3735 108° East  Level FlightAware Approximate
11:12AM 59.1544 -132.1316 108° East  Level FlightAware Approximate
11:13AM 59.1127 -131.8902 109° East  Level FlightAware Approximate
11:14AM 59.0705 -131.6495 109° East  Level FlightAware Approximate
11:15AM 59.0279 -131.4093 109° East  Level FlightAware Approximate
11:16AM 58.9849 -131.1697 109° East  Level FlightAware Approximate
11:17AM 58.9414 -130.9308 109° East  Level FlightAware Approximate
11:18AM 58.8974 -130.6924 110° East  Level FlightAware Approximate
11:19AM 58.8531 -130.4547 110° East  Level FlightAware Approximate
11:20AM 58.8083 -130.2175 110° East  Level FlightAware Approximate
11:21AM 58.7631 -129.9809 110° East  Level FlightAware Approximate
11:22AM 58.7185 -129.7442 110° East  Level FlightAware Approximate
11:23AM 58.6734 -129.5082 110° East  Level FlightAware Approximate
11:24AM 58.6280 -129.2727 110° East  Level FlightAware Approximate
11:25AM 58.5821 -129.0379 110° East  Level FlightAware Approximate
11:26AM 58.5357 -128.8037 111° Southeast  Level FlightAware Approximate
11:27AM 58.4880 -128.5728 111° Southeast  Level FlightAware Approximate
11:28AM 58.4398 -128.3426 112° Southeast  Level FlightAware Approximate
11:29AM 58.3913 -128.1130 112° Southeast  Level FlightAware Approximate
11:30AM 58.3423 -127.8841 112° Southeast  Level FlightAware Approximate
11:31AM 58.2929 -127.6558 112° Southeast  Level FlightAware Approximate
11:32AM 58.2432 -127.4281 112° Southeast  Level FlightAware Approximate
11:33AM 58.1930 -127.2010 113° Southeast  Level FlightAware Approximate
11:34AM 58.1424 -126.9746 113° Southeast  Level FlightAware Approximate
11:35AM 58.0914 -126.7489 113° Southeast  Level FlightAware Approximate
11:36AM 58.0400 -126.5238 113° Southeast  Level FlightAware Approximate
11:37AM 57.9888 -126.3005 113° Southeast  Level FlightAware Approximate
11:38AM 57.9375 -126.0760 113° Southeast  Level FlightAware Approximate
11:39AM 57.8859 -125.8520 113° Southeast  Level FlightAware Approximate
11:40AM 57.8339 -125.6288 114° Southeast  Level FlightAware Approximate
11:41AM 57.7815 -125.4061 114° Southeast  Level FlightAware Approximate
11:42AM 57.7286 -125.1841 114° Southeast  Level FlightAware Approximate
11:42AM 57.6167 -124.8667 115° Southeast 490 564 35,000  Level Edmonton Center
11:43AM 57.6754 -124.9628 114° Southeast  Level FlightAware Approximate
11:43AM 57.5667 -124.6167 110° East 480 552 35,000  Level Edmonton Center
11:44AM 57.6219 -124.7421 114° Southeast  Level FlightAware Approximate
11:44AM 57.5167 -124.4167 115° Southeast 480 552 35,000  Level Edmonton Center
11:45AM 57.5679 -124.5220 114° Southeast  Level FlightAware Approximate
11:45AM 57.4500 -124.1500 115° Southeast 490 564 35,000  Level Edmonton Center
11:46AM 57.5135 -124.3027 115° Southeast  Level FlightAware Approximate
11:46AM 57.4000 -123.9333 113° Southeast 480 552 35,000  Level Edmonton Center
11:47AM 57.4588 -124.0839 115° Southeast  Level FlightAware Approximate
11:47AM 57.3333 -123.7000 118° Southeast 490 564 35,000  Level Edmonton Center
11:48AM 57.4037 -123.8659 115° Southeast  Level FlightAware Approximate
11:48AM 57.2833 -123.4833 113° Southeast 480 552 35,000  Level Edmonton Center
11:49AM 57.2167 -123.2500 118° Southeast 480 552 35,000  Level Edmonton Center
11:50AM 57.1667 -123.0333 113° Southeast 480 552 35,000  Level Edmonton Center
11:51AM 57.1167 -122.8167 113° Southeast 480 552 35,000  Level Edmonton Center
11:52AM 57.0500 -122.5833 118° Southeast 480 552 35,000  Level Edmonton Center
11:53AM 56.9833 -122.3667 119° Southeast 480 552 35,000  Level Edmonton Center
11:54AM 56.9167 -122.1333 118° Southeast 480 552 35,000  Level Edmonton Center
11:55AM 56.8667 -121.9167 113° Southeast 480 552 35,000  Level Edmonton Center
11:56AM 56.8000 -121.7000 119° Southeast 480 552 35,000  Level Edmonton Center
11:57AM 56.7500 -121.4833 113° Southeast 480 552 35,000  Level Edmonton Center
11:58AM 56.6667 -121.2667 125° Southeast 480 552 35,000  Level Edmonton Center
11:59AM 56.6167 -121.0500 113° Southeast 480 552 35,000  Level Edmonton Center
12:00PM 56.5500 -120.8333 119° Southeast 480 552 35,000  Level Edmonton Center
12:01PM 56.4833 -120.6167 119° Southeast 480 552 35,000  Level Edmonton Center
12:02PM 56.4167 -120.4000 119° Southeast 480 552 35,000  Level Edmonton Center
12:03PM 56.3667 -120.1833 113° Southeast 490 564 35,000  Level Edmonton Center
12:04PM 56.2833 -119.9667 125° Southeast 490 564 35,000  Level Edmonton Center
12:05PM 56.2333 -119.7500 112° Southeast 490 564 35,000  Level Edmonton Center
12:06PM 56.1667 -119.5500 121° Southeast 490 564 35,000  Level Edmonton Center
12:07PM 56.1000 -119.3000 115° Southeast 500 575 35,000  Level Edmonton Center
12:08PM 56.0333 -119.0833 119° Southeast 500 575 35,000  Level Edmonton Center
12:09PM 55.9500 -118.8833 127° Southeast 500 575 35,000  Level Edmonton Center
12:10PM 55.8833 -118.6667 119° Southeast 500 575 35,000  Level Edmonton Center
12:11PM 55.8167 -118.4500 119° Southeast 500 575 35,000  Level Edmonton Center
12:12PM 55.7500 -118.2167 117° Southeast 500 575 35,000  Level Edmonton Center
12:13PM 55.6667 -118.0167 126° Southeast 500 575 35,000  Level Edmonton Center
12:14PM 55.6167 -117.7667 109° East 500 575 35,000  Level Edmonton Center
12:15PM 55.5333 -117.5667 126° Southeast 500 575 35,000  Level Edmonton Center
12:16PM 55.4667 -117.3667 120° Southeast 500 575 35,000  Level Edmonton Center
12:17PM 55.3833 -117.1500 124° Southeast 500 575 35,000  Level Edmonton Center
12:18PM 55.3167 -116.9500 120° Southeast 500 575 35,000  Level Edmonton Center
12:19PM 55.2500 -116.7167 117° Southeast 500 575 35,000  Level Edmonton Center
12:20PM 55.1833 -116.5167 120° Southeast 500 575 35,000  Level Edmonton Center
12:21PM 55.1000 -116.3167 126° Southeast 500 575 35,000  Level Edmonton Center
12:22PM 55.0333 -116.1167 120° Southeast 500 575 35,000  Level Edmonton Center
12:23PM 54.9500 -115.8833 122° Southeast 500 575 35,000  Level Edmonton Center
12:24PM 54.8833 -115.6833 120° Southeast 500 575 35,000  Level Edmonton Center
12:25PM 54.8000 -115.4500 122° Southeast 500 575 35,000  Level Edmonton Center
12:26PM 54.7333 -115.2500 120° Southeast 500 575 35,000  Level Edmonton Center
12:27PM 54.6500 -115.0500 126° Southeast 500 575 35,000  Level Edmonton Center
12:28PM 54.5667 -114.8667 128° Southeast 500 575 35,000  Level Edmonton Center
12:29PM 54.5000 -114.6333 116° Southeast 500 575 35,000  Level Edmonton Center
12:30PM 54.4167 -114.4500 128° Southeast 500 575 35,000  Level Edmonton Center
12:31PM 54.3500 -114.2500 120° Southeast 500 575 35,000  Level Edmonton Center
12:32PM 54.2667 -114.0500 125° Southeast 500 575 35,000  Level Edmonton Center
12:33PM 54.2000 -113.8333 118° Southeast 510 587 35,000  Level Edmonton Center
12:34PM 54.1167 -113.6500 128° Southeast 510 587 35,000  Level Edmonton Center
12:35PM 54.0333 -113.4167 121° Southeast 510 587 35,000  Level Edmonton Center
12:36PM 53.9500 -113.2333 128° Southeast 510 587 35,000  Level Edmonton Center
12:37PM 53.8667 -113.0333 125° Southeast 510 587 35,000  Level Edmonton Center
12:38PM 53.8000 -112.8333 119° Southeast 510 587 35,000  Level Edmonton Center
12:39PM 53.7000 -112.6333 130° Southeast 510 587 35,000  Level Edmonton Center
12:40PM 53.6333 -112.4167 117° Southeast 510 587 35,000  Level Edmonton Center
12:41PM 53.5500 -112.2333 127° Southeast 510 587 35,000  Level Edmonton Center
12:42PM 53.4667 -112.0500 127° Southeast 510 587 35,000  Level Edmonton Center
12:43PM 53.3833 -111.8333 123° Southeast 510 587 35,000  Level Edmonton Center
12:44PM 53.2833 -111.6500 132° Southeast 510 587 35,000  Level Edmonton Center
12:45PM 53.2167 -111.4667 121° Southeast 500 575 35,000  Level Edmonton Center
12:46PM 53.1333 -111.2500 123° Southeast 510 587 35,000  Level Edmonton Center
12:47PM 53.0500 -111.0667 127° Southeast 500 575 35,000  Level Edmonton Center
12:48PM 52.9833 -110.9000 124° Southeast 500 575 35,000  Level Edmonton Center
12:49PM 52.8833 -110.6833 127° Southeast 500 575 35,000  Level Edmonton Center
12:50PM 52.8333 -110.4833 112° Southeast 500 575 35,000  Level Edmonton Center
12:51PM 52.7500 -110.2667 122° Southeast 500 575 35,000  Level Edmonton Center
12:52PM 52.6833 -110.0667 119° Southeast 500 575 35,000  Level Edmonton Center
12:53PM 52.6333 -109.9167 119° Southeast 500 575 35,000  Level Winnipeg Center
12:54PM 52.5500 -109.7333 127° Southeast 500 575 35,000  Level Winnipeg Center
12:55PM 52.5000 -109.5500 114° Southeast 500 575 35,000  Level Winnipeg Center
12:56PM 52.4167 -109.3500 124° Southeast 500 575 35,000  Level Winnipeg Center
12:57PM 52.3500 -109.1500 119° Southeast 500 575 35,000  Level Winnipeg Center
12:58PM 52.2833 -108.9667 121° Southeast 500 575 35,000  Level Winnipeg Center
12:59PM 52.2000 -108.7500 122° Southeast 500 575 35,000  Level Winnipeg Center
01:00PM 52.1333 -108.5667 121° Southeast 500 575 35,000  Level Winnipeg Center
01:01PM 52.0500 -108.3833 126° Southeast 500 575 35,000  Level Winnipeg Center
01:02PM 51.9833 -108.1667 116° Southeast 500 575 35,000  Level Winnipeg Center
01:03PM 51.9000 -107.9833 126° Southeast 500 575 35,000  Level Winnipeg Center
01:04PM 51.8333 -107.8000 120° Southeast 500 575 35,000  Level Winnipeg Center
01:05PM 51.7667 -107.6167 120° Southeast 500 575 35,000  Level Winnipeg Center
01:06PM 51.6833 -107.4167 124° Southeast 500 575 35,000  Level Winnipeg Center
01:07PM 51.6167 -107.2333 120° Southeast 500 575 35,000  Level Winnipeg Center
01:08PM 51.5333 -107.0500 126° Southeast 490 564 35,000  Level Winnipeg Center
01:09PM 51.4667 -106.8667 120° Southeast 490 564 35,000  Level Winnipeg Center
01:10PM 51.3833 -106.6667 124° Southeast 490 564 35,000 -240 Level Winnipeg Center
01:11PM 51.3167 -106.5167 125° Southeast 470 541 34,600 -1,020 Descending Winnipeg Center
01:12PM 51.2500 -106.3167 118° Southeast 480 552 33,000 -840 Descending Winnipeg Center
01:13PM 51.1667 -106.1333 126° Southeast 500 575 33,000  Level Winnipeg Center
01:14PM 51.0833 -105.9667 128° Southeast 500 575 33,000  Level Winnipeg Center
01:15PM 51.0167 -105.7833 120° Southeast 490 564 33,000  Level Winnipeg Center
01:16PM 50.9500 -105.5833 118° Southeast 480 552 33,000  Level Winnipeg Center
01:17PM 50.8833 -105.4167 122° Southeast 480 552 33,000  Level Winnipeg Center
01:18PM 50.7833 -105.2333 131° Southeast 480 552 33,000  Level Winnipeg Center
01:19PM 50.7167 -105.0667 122° Southeast 480 552 33,000  Level Winnipeg Center
01:20PM 50.6500 -104.9000 122° Southeast 480 552 33,000  Level Winnipeg Center
01:21PM 50.5667 -104.7167 126° Southeast 490 564 33,000  Level Winnipeg Center
01:22PM 50.5000 -104.5333 120° Southeast 500 575 33,000  Level Winnipeg Center
01:23PM 50.4167 -104.3500 125° Southeast 490 564 33,000  Level Winnipeg Center
01:24PM 50.3333 -104.1833 128° Southeast 490 564 33,000  Level Winnipeg Center
01:25PM 50.2667 -103.9833 117° Southeast 490 564 33,000  Level Winnipeg Center
01:26PM 50.1833 -103.8167 128° Southeast 490 564 33,000  Level Winnipeg Center
01:27PM 50.1000 -103.6500 128° Southeast 490 564 33,000  Level Winnipeg Center
01:28PM 50.0333 -103.4500 117° Southeast 490 564 33,000  Level Winnipeg Center
01:29PM 49.9500 -103.2833 128° Southeast 490 564 33,000  Level Winnipeg Center
01:30PM 49.8833 -103.1167 122° Southeast 490 564 33,000  Level Winnipeg Center
01:31PM 49.8000 -102.9333 125° Southeast 490 564 33,000  Level Winnipeg Center
01:32PM 49.7333 -102.7667 122° Southeast 480 552 33,000  Level Winnipeg Center
01:33PM 49.6333 -102.6000 133° Southeast 480 552 33,000  Level Winnipeg Center
01:34PM 49.5667 -102.4333 122° Southeast 480 552 33,000  Level Winnipeg Center
01:35PM 49.4833 -102.2500 125° Southeast 480 552 33,000  Level Winnipeg Center
01:36PM 49.4167 -102.0833 122° Southeast 480 552 33,000  Level Winnipeg Center
01:37PM 49.3333 -101.9167 127° Southeast 480 552 33,000  Level Winnipeg Center
01:38PM 49.2667 -101.7667 124° Southeast 480 552 33,000  Level Winnipeg Center
01:39PM 49.1833 -101.6000 127° Southeast 480 552 33,000  Level Winnipeg Center
01:40PM 49.1000 -101.4167 125° Southeast 480 552 33,000  Level Winnipeg Center
01:41PM 49.0500 -101.2500 115° Southeast 480 552 33,000  Level Winnipeg Center
01:42PM 48.9667 -101.0667 125° Southeast 480 552 33,000  Level Winnipeg Center
01:43PM 48.9000 -100.9167 124° Southeast 470 541 33,000  Level Winnipeg Center
01:44PM 48.8500 -100.7333 112° Southeast 470 541 33,000  Level Winnipeg Center
01:45PM 48.8194 -100.6250 113° Southeast 473 544 33,000  Level Minneapolis Center
01:46PM 48.7392 -100.4181 120° Southeast 475 547 33,000  Level Minneapolis Center
01:47PM 48.6722 -100.2469 121° Southeast 474 545 33,000  Level Minneapolis Center
01:48PM 48.6039 -100.0750 121° Southeast 476 548 33,000  Level Minneapolis Center
01:49PM 48.5361 -99.9058 121° Southeast 474 545 33,000  Level Minneapolis Center
01:50PM 48.4686 -99.7372 121° Southeast 473 544 33,000  Level Minneapolis Center
01:51PM 48.3881 -99.5361 121° Southeast 469 540 33,000  Level Minneapolis Center
01:52PM 48.3208 -99.3719 122° Southeast 466 536 33,000  Level Minneapolis Center
01:53PM 48.2542 -99.2053 121° Southeast 465 535 33,000 -60 Level Minneapolis Center
01:54PM 48.1750 -99.0056 121° Southeast 466 536 32,900  Descending Minneapolis Center
01:55PM 48.1075 -98.8394 121° Southeast 468 539 33,000  Climbing Minneapolis Center
01:57PM 48.0375 -98.6744 122° Southeast 469 540 33,000  Level Minneapolis Center
01:58PM 47.9533 -98.4747 122° Southeast 474 545 33,000  Level Minneapolis Center
01:59PM 47.8822 -98.3094 123° Southeast 474 545 33,000  Level Minneapolis Center
02:00PM 47.8114 -98.1417 122° Southeast 477 549 33,000  Level Minneapolis Center
02:01PM 47.7397 -97.9747 123° Southeast 476 548 33,000  Level Minneapolis Center
02:02PM 47.6683 -97.8083 122° Southeast 472 543 33,000  Level Minneapolis Center
02:03PM 47.5961 -97.6411 123° Southeast 472 543 33,000  Level Minneapolis Center
02:04PM 47.5111 -97.4461 123° Southeast 467 537 33,000  Level Minneapolis Center
02:05PM 47.4411 -97.2861 123° Southeast 464 534 33,000  Level Minneapolis Center
02:06PM 47.3572 -97.0961 123° Southeast 460 529 33,000  Level Minneapolis Center
02:07PM 47.2872 -96.9383 123° Southeast 461 531 33,000  Level Minneapolis Center
02:08PM 47.2175 -96.7828 123° Southeast 457 526 33,000  Level Minneapolis Center
02:09PM 47.1464 -96.6253 124° Southeast 461 531 33,000  Level Minneapolis Center
02:10PM 47.0764 -96.4697 123° Southeast 458 527 33,000  Level Minneapolis Center
02:11PM 47.0053 -96.3125 124° Southeast 462 532 33,000  Level Minneapolis Center
02:12PM 46.9186 -96.1239 124° Southeast 466 536 33,000  Level Minneapolis Center
02:13PM 46.8464 -95.9678 124° Southeast 465 535 33,000  Level Minneapolis Center
02:14PM 46.7689 -95.8000 124° Southeast 468 539 33,000  Level Minneapolis Center
02:15PM 46.7003 -95.6542 124° Southeast 469 540 33,000  Level Minneapolis Center
02:16PM 46.6414 -95.5286 124° Southeast 470 541 33,000 -60 Level Minneapolis Center
02:17PM 46.5503 -95.3336 124° Southeast 467 537 32,900 -540 Descending Minneapolis Center
02:18PM 46.4775 -95.1808 125° Southeast 464 534 31,900 -1,140 Descending Minneapolis Center
02:20PM 46.3886 -94.9950 125° Southeast 469 540 30,600 -1,200 Descending Minneapolis Center
02:21PM 46.3150 -94.8425 125° Southeast 466 536 29,500 -1,080 Descending Minneapolis Center
02:22PM 46.2414 -94.6894 125° Southeast 466 536 28,400 -1,020 Descending Minneapolis Center
02:23PM 46.1603 -94.5211 125° Southeast 459 528 27,500 -1,380 Descending Minneapolis Center
02:24PM 46.0881 -94.3733 125° Southeast 455 524 25,600 -2,100 Descending Minneapolis Center
02:25PM 46.0172 -94.2317 126° Southeast 444 511 23,200 -2,280 Descending Minneapolis Center
02:26PM 45.9506 -94.0953 125° Southeast 424 488 20,900 -2,160 Descending Minneapolis Center
02:27PM 45.8861 -93.9658 126° Southeast 406 467 18,800 -2,160 Descending Minneapolis Center
02:28PM 45.8081 -93.8600 137° Southeast 394 453 16,500 -2,400 Descending Minneapolis Center
02:29PM 45.7014 -93.7522 145° Southeast 387 445 13,900 -2,280 Descending Minneapolis Center
02:30PM 45.6178 -93.6664 144° Southeast 371 427 11,800 -1,440 Descending Minneapolis Center
02:31PM 45.5347 -93.5822 145° Southeast 369 425 11,000 -420 Descending Minneapolis Center
02:32PM 45.4325 -93.5244 158° South 392 451 11,000 -300 Level Minneapolis Center
02:33PM 45.3347 -93.4739 160° South 370 426 10,500 -660 Descending Minneapolis Center
02:34PM 45.2319 -93.4672 177° South 310 357 9,700 -1,380 Descending Minneapolis Center
02:35PM 45.1519 -93.4747 184° South 291 335 7,700 -2,040 Descending Minneapolis Center
02:36PM 45.0761 -93.4831 184° South 277 319 5,600 -1,500 Descending Minneapolis Center
02:37PM 45.0144 -93.4536 161° South 236 272 4,600 -1,020 Descending Minneapolis Center